»·PEaware :: UAL1399 KSAN-KLAX

UAL1399 :: KSAN-KLAX

FLIGHT INFORMATION

Flight Status: Arrived
Operator:
United Airlines
More flights by this operator :: More flights under this callsign
Pilot: David C. (16084)
Aircraft: SAAB 340
(SF34)
More flights by this aircraft type
Origin: KSAN San Diego Intl-Lindbergh
United States
Destination: KLAX Los Angeles Intl
United States
More flights between these airports :: More routes between these airports
Route: CWARD2 SLI
File this flight plan on PilotEdge
Remarks:
Altitude:
(Current/Filed)
8,000ft
Speed:
(Current/Filed)
269kts
Departed: 27-Jul-18 10:38 AM
Arrived: 27-Jul-18 11:06 AM
Distance/Time
Traveled:
94nm/0:28
Distance/Time
To Go:
Arrived

Flight Plot

Page will automatically refresh every two minutes.

Flight plan parsing failed; only flown route is shown


Map Options




Map Legend


Flown Route
Filed Route
Departure Airport
Arrival Airport
Navaid (VOR, NDB)
Fix

Horizontal Profiles

Position Reports

Time Latitude Longitude Heading Altitude Ground
Speed
27-Jul-18 10:14 32.733750 -117.203583 72 22ft 0kts
27-Jul-18 10:15 32.733750 -117.203583 72 22ft 0kts
27-Jul-18 10:16 32.733750 -117.203583 72 22ft 0kts
27-Jul-18 10:17 32.733750 -117.203583 72 22ft 0kts
27-Jul-18 10:18 32.733750 -117.203583 72 22ft 0kts
27-Jul-18 10:19 32.733750 -117.203583 72 22ft 0kts
27-Jul-18 10:20 32.733750 -117.203583 72 22ft 0kts
27-Jul-18 10:21 32.733750 -117.203583 72 22ft 0kts
27-Jul-18 10:22 32.733750 -117.203583 72 22ft 0kts
27-Jul-18 10:23 32.733750 -117.203583 72 22ft 0kts
27-Jul-18 10:24 32.733750 -117.203583 72 22ft 0kts
27-Jul-18 10:25 32.733750 -117.203583 72 22ft 0kts
27-Jul-18 10:26 32.733750 -117.203583 72 22ft 0kts
27-Jul-18 10:27 32.733750 -117.203583 72 22ft 0kts
27-Jul-18 10:28 32.733750 -117.203583 72 22ft 0kts
27-Jul-18 10:29 32.733750 -117.203583 72 22ft 0kts
27-Jul-18 10:30 32.733750 -117.203583 72 22ft 0kts
27-Jul-18 10:31 32.733750 -117.203583 72 22ft 0kts
27-Jul-18 10:32 32.733750 -117.203582 72 22ft 0kts
27-Jul-18 10:33 32.735285 -117.201239 109 22ft 20kts
27-Jul-18 10:34 32.733245 -117.192484 106 22ft 32kts
27-Jul-18 10:35 32.731135 -117.183928 106 22ft 29kts
27-Jul-18 10:36 32.729531 -117.176865 77 22ft 0kts
27-Jul-18 10:37 32.729531 -117.176865 77 22ft 0kts
27-Jul-18 10:38 32.730246 -117.176549 325 22ft 10kts
27-Jul-18 10:39 32.738326 -117.210140 293 831ft 179kts
27-Jul-18 10:40 32.766951 -117.259523 303 3315ft 188kts
27-Jul-18 10:41 32.795876 -117.312317 303 5483ft 195kts
27-Jul-18 10:42 32.827967 -117.362567 306 7517ft 194kts
27-Jul-18 10:43 32.864412 -117.419183 306 8001ft 243kts
27-Jul-18 10:44 32.907016 -117.485384 306 7990ft 258kts
27-Jul-18 10:45 32.950731 -117.553438 305 7988ft 261kts
27-Jul-18 10:46 32.994992 -117.622477 306 7989ft 263kts
27-Jul-18 10:47 33.038800 -117.691107 305 7990ft 265kts
27-Jul-18 10:48 33.088618 -117.754982 318 7984ft 266kts
27-Jul-18 10:49 33.144120 -117.811657 318 7988ft 266kts
27-Jul-18 10:50 33.202920 -117.863661 346 8010ft 266kts
27-Jul-18 10:51 33.275106 -117.882417 347 7994ft 267kts
27-Jul-18 10:52 33.347663 -117.900543 347 7987ft 267kts
27-Jul-18 10:53 33.419540 -117.922614 342 7977ft 268kts
27-Jul-18 10:54 33.490870 -117.948424 342 7971ft 269kts
27-Jul-18 10:55 33.562383 -117.974436 342 7971ft 269kts
27-Jul-18 10:56 33.634064 -118.000420 342 7970ft 269kts
27-Jul-18 10:57 33.704709 -118.026198 342 7968ft 269kts
27-Jul-18 10:58 33.772418 -118.051012 338 7042ft 234kts
27-Jul-18 10:59 33.833673 -118.066821 351 6959ft 244kts
27-Jul-18 11:00 33.897819 -118.076479 351 5737ft 249kts
27-Jul-18 11:01 33.950788 -118.111034 291 4237ft 229kts
27-Jul-18 11:02 33.957848 -118.179721 262 3407ft 191kts
27-Jul-18 11:03 33.952221 -118.235921 262 2533ft 157kts
27-Jul-18 11:04 33.947182 -118.286056 261 1744ft 152kts
27-Jul-18 11:05 33.942289 -118.334487 261 946ft 126kts
27-Jul-18 11:06 33.937987 -118.376712 261 275ft 127kts
27-Jul-18 11:07 33.935539 -118.400440 271 132ft 26kts
27-Jul-18 11:08 33.936064 -118.403154 293 132ft 0kts
27-Jul-18 11:09 33.938056 -118.404301 10 132ft 8kts
27-Jul-18 11:10 33.938159 -118.404267 16 132ft 0kts
27-Jul-18 11:11 33.938552 -118.403012 49 132ft 12kts
27-Jul-18 11:12 33.939774 -118.398559 70 132ft 13kts
27-Jul-18 11:13 33.941330 -118.397666 81 132ft 0kts

Navigation Log

Ident Type
Flight plan parsing failed, navigation log unavailable